WEATHER/FLIGHT PLANNING

Hattiesburg Radar

 

 

 

 

Weather Links

Flight Planning Links

 

METAR

2014/09/02 10:53 KHBG 021053Z AUTO 00000KT 10SM CLR 23/22 A3005 RMK AO2 SLP172 T02330222

TAF

2014/09/02 12:21 TAF KHBG 021120Z 0212/0312 00000KT 6SM BR SCT015 BKN130 FM021400 17006KT P6SM SCT025 BKN040 FM021800 22004KT P6SM VCTS BKN050CB BKN250 FM030100 17002KT P6SM BKN080 OVC250 FM031000 00000KT 4SM BR SCT250